sensor_id;sensor_type;location;lat;lon;timestamp;pressure;altitude;pressure_sealevel;temperature;humidity
7754;BME280;3921;42.266;23.122;2022-11-02T00:52:43;95895.50;;;8.51;63.49
7754;BME280;3921;42.266;23.122;2022-11-02T01:29:29;96385.38;;;11.39;65.01
7754;BME280;3921;42.266;23.122;2022-11-02T01:32:32;96363.59;;;11.36;64.79
7754;BME280;3921;42.266;23.122;2022-11-02T01:35:26;95949.00;;;8.58;65.04
7754;BME280;3921;42.266;23.122;2022-11-02T01:38:07;95804.69;;;7.78;64.48
7754;BME280;3921;42.266;23.122;2022-11-02T01:40:47;95846.47;;;7.88;65.22
7754;BME280;3921;42.266;23.122;2022-11-02T01:43:19;95847.25;;;7.84;64.99
7754;BME280;3921;42.266;23.122;2022-11-02T01:46:03;96371.78;;;11.06;65.06
7754;BME280;3921;42.266;23.122;2022-11-02T01:48:43;96076.59;;;9.27;64.98
7754;BME280;3921;42.266;23.122;2022-11-02T01:51:20;95838.75;;;7.68;64.82
7754;BME280;3921;42.266;23.122;2022-11-02T01:54:03;95883.88;;;7.77;64.40
7754;BME280;3921;42.266;23.122;2022-11-02T02:13:15;96125.09;;;9.29;65.00
7754;BME280;3921;42.266;23.122;2022-11-02T02:16:36;95816.47;;;7.16;65.30
7754;BME280;3921;42.266;23.122;2022-11-02T02:19:43;96376.56;;;10.71;65.25
7754;BME280;3921;42.266;23.122;2022-11-02T02:48:50;95808.50;;;6.80;65.99
7754;BME280;3921;42.266;23.122;2022-11-02T02:51:23;95864.06;;;7.23;65.81
7754;BME280;3921;42.266;23.122;2022-11-02T02:54:06;95913.69;;;7.57;65.23
7754;BME280;3921;42.266;23.122;2022-11-02T02:56:45;96081.88;;;8.70;64.87
7754;BME280;3921;42.266;23.122;2022-11-02T02:59:26;95797.69;;;6.79;65.42
7754;BME280;3921;42.266;23.122;2022-11-02T03:02:35;95872.44;;;7.26;64.74
7754;BME280;3921;42.266;23.122;2022-11-02T03:07:51;96388.91;;;10.47;64.90
7754;BME280;3921;42.266;23.122;2022-11-02T03:10:46;95852.25;;;7.12;65.20
7754;BME280;3921;42.266;23.122;2022-11-02T03:19:22;95897.34;;;7.22;64.85
7754;BME280;3921;42.266;23.122;2022-11-02T03:22:14;95913.63;;;7.54;64.73
7754;BME280;3921;42.266;23.122;2022-11-02T03:25:09;96388.81;;;10.37;66.12
7754;BME280;3921;42.266;23.122;2022-11-02T03:28:08;95937.50;;;7.32;65.66
7754;BME280;3921;42.266;23.122;2022-11-02T03:31:05;96430.63;;;10.31;67.48
7754;BME280;3921;42.266;23.122;2022-11-02T03:34:10;96387.16;;;10.35;66.40
7754;BME280;3921;42.266;23.122;2022-11-02T03:37:03;95915.66;;;7.17;66.19
7754;BME280;3921;42.266;23.122;2022-11-02T03:40:01;95983.88;;;7.71;66.73
7754;BME280;3921;42.266;23.122;2022-11-02T03:42:35;96371.97;;;10.24;67.24
7754;BME280;3921;42.266;23.122;2022-11-02T03:48:07;95763.16;;;6.49;66.44
7754;BME280;3921;42.266;23.122;2022-11-02T03:53:44;95827.16;;;7.03;65.78
7754;BME280;3921;42.266;23.122;2022-11-02T03:56:30;96083.16;;;8.36;65.93
7754;BME280;3921;42.266;23.122;2022-11-02T03:59:14;96236.94;;;9.15;65.67
7754;BME280;3921;42.266;23.122;2022-11-02T04:01:45;95811.81;;;6.77;65.03
7754;BME280;3921;42.266;23.122;2022-11-02T04:04:19;95844.47;;;6.91;65.79
7754;BME280;3921;42.266;23.122;2022-11-02T04:06:52;95855.44;;;7.02;66.50
7754;BME280;3921;42.266;23.122;2022-11-02T04:09:23;96030.97;;;8.03;66.78
7754;BME280;3921;42.266;23.122;2022-11-02T04:11:53;95994.63;;;7.64;66.46
7754;BME280;3921;42.266;23.122;2022-11-02T04:14:48;95916.25;;;7.04;66.01
7754;BME280;3921;42.266;23.122;2022-11-02T04:17:18;96065.41;;;8.20;66.19
7754;BME280;3921;42.266;23.122;2022-11-02T04:20:03;95933.56;;;7.51;66.54
7754;BME280;3921;42.266;23.122;2022-11-02T04:22:31;95815.97;;;6.77;65.92
7754;BME280;3921;42.266;23.122;2022-11-02T04:25:17;95831.94;;;6.88;65.31
7754;BME280;3921;42.266;23.122;2022-11-02T04:27:47;96211.69;;;9.00;65.55
7754;BME280;3921;42.266;23.122;2022-11-02T04:30:22;95989.25;;;7.39;65.34
7754;BME280;3921;42.266;23.122;2022-11-02T04:32:52;96267.47;;;9.52;64.74
7754;BME280;3921;42.266;23.122;2022-11-02T04:35:37;96240.41;;;9.26;64.79
7754;BME280;3921;42.266;23.122;2022-11-02T04:38:07;96361.66;;;10.01;65.50
7754;BME280;3921;42.266;23.122;2022-11-02T04:40:54;96358.41;;;10.11;65.21
7754;BME280;3921;42.266;23.122;2022-11-02T04:43:40;96221.25;;;9.30;64.54
7754;BME280;3921;42.266;23.122;2022-11-02T04:46:19;95932.47;;;7.31;65.31
7754;BME280;3921;42.266;23.122;2022-11-02T04:48:48;95910.59;;;7.16;65.09
7754;BME280;3921;42.266;23.122;2022-11-02T04:51:20;95830.00;;;6.69;65.38
7754;BME280;3921;42.266;23.122;2022-11-02T04:53:48;95846.81;;;6.79;65.84
7754;BME280;3921;42.266;23.122;2022-11-02T04:56:19;95896.38;;;7.10;65.71
7754;BME280;3921;42.266;23.122;2022-11-02T04:58:48;95828.22;;;6.61;65.29
7754;BME280;3921;42.266;23.122;2022-11-02T05:01:18;95948.63;;;7.53;65.61
7754;BME280;3921;42.266;23.122;2022-11-02T05:34:10;96339.66;;;9.79;64.81
7754;BME280;3921;42.266;23.122;2022-11-02T06:09:17;96104.25;;;7.39;67.79
7754;BME280;3921;42.266;23.122;2022-11-02T06:11:45;96193.78;;;8.12;67.15
7754;BME280;3921;42.266;23.122;2022-11-02T06:19:52;95938.31;;;6.25;68.96
7754;BME280;3921;42.266;23.122;2022-11-02T06:22:38;96024.09;;;6.77;69.30
7754;BME280;3921;42.266;23.122;2022-11-02T16:14:28;95584.63;;;13.99;51.17
7754;BME280;3921;42.266;23.122;2022-11-02T16:17:21;95950.88;;;16.16;50.90
7754;BME280;3921;42.266;23.122;2022-11-02T16:19:50;96013.59;;;16.50;51.17
7754;BME280;3921;42.266;23.122;2022-11-02T16:22:31;95808.38;;;15.20;51.04
7754;BME280;3921;42.266;23.122;2022-11-02T16:25:06;95823.41;;;15.28;51.20
7754;BME280;3921;42.266;23.122;2022-11-02T16:27:37;95593.34;;;13.81;50.90
7754;BME280;3921;42.266;23.122;2022-11-02T16:33:12;95765.16;;;14.83;51.79
7754;BME280;3921;42.266;23.122;2022-11-02T16:35:48;95582.03;;;13.52;51.97
7754;BME280;3921;42.266;23.122;2022-11-02T16:38:27;95770.19;;;14.84;51.60
7754;BME280;3921;42.266;23.122;2022-11-02T16:40:56;96073.47;;;16.57;51.75
7754;BME280;3921;42.266;23.122;2022-11-02T16:43:32;95610.44;;;13.67;51.58
7754;BME280;3921;42.266;23.122;2022-11-02T16:52:29;95981.03;;;15.87;51.82
7754;BME280;3921;42.266;23.122;2022-11-02T16:58:00;95619.06;;;13.53;52.31
7754;BME280;3921;42.266;23.122;2022-11-02T17:00:58;96073.50;;;16.11;52.16
7754;BME280;3921;42.266;23.122;2022-11-02T17:09:34;95652.22;;;13.27;52.55
7754;BME280;3921;42.266;23.122;2022-11-02T17:12:41;95819.16;;;14.26;52.60
7754;BME280;3921;42.266;23.122;2022-11-02T17:15:25;95632.31;;;13.05;52.10
7754;BME280;3921;42.266;23.122;2022-11-02T17:23:57;95712.41;;;13.57;52.46
7754;BME280;3921;42.266;23.122;2022-11-02T17:26:29;96024.72;;;15.50;52.67
7754;BME280;3921;42.266;23.122;2022-11-02T17:29:27;95662.63;;;13.03;52.91
7754;BME280;3921;42.266;23.122;2022-11-02T17:31:56;95777.84;;;13.72;52.75
7754;BME280;3921;42.266;23.122;2022-11-02T17:34:28;95593.97;;;12.81;52.91
7754;BME280;3921;42.266;23.122;2022-11-02T17:37:00;95769.50;;;13.67;52.68
7754;BME280;3921;42.266;23.122;2022-11-02T17:39:46;96105.31;;;15.81;52.73
7754;BME280;3921;42.266;23.122;2022-11-02T18:00:03;95639.06;;;12.33;52.75
7754;BME280;3921;42.266;23.122;2022-11-02T18:02:34;95855.31;;;13.68;52.52
7754;BME280;3921;42.266;23.122;2022-11-02T18:26:43;96119.19;;;14.97;53.50
7754;BME280;3921;42.266;23.122;2022-11-02T18:46:01;95953.91;;;13.61;53.59
7754;BME280;3921;42.266;23.122;2022-11-02T18:54:15;95684.00;;;11.75;53.43
7754;BME280;3921;42.266;23.122;2022-11-02T19:13:32;95855.72;;;12.36;54.91
7754;BME280;3921;42.266;23.122;2022-11-02T19:36:12;95619.97;;;10.89;55.59
7754;BME280;3921;42.266;23.122;2022-11-02T19:38:43;96051.66;;;13.45;55.81
7754;BME280;3921;42.266;23.122;2022-11-02T19:41:25;95717.03;;;11.21;55.65
7754;BME280;3921;42.266;23.122;2022-11-02T19:46:37;95787.22;;;11.73;55.49
7754;BME280;3921;42.266;23.122;2022-11-02T19:49:04;95716.22;;;11.19;55.71
7754;BME280;3921;42.266;23.122;2022-11-02T19:55:00;95739.66;;;11.27;54.94
7754;BME280;3921;42.266;23.122;2022-11-02T19:57:37;95743.78;;;11.43;54.70
7754;BME280;3921;42.266;23.122;2022-11-02T20:03:39;95727.97;;;11.15;54.86
7754;BME280;3921;42.266;23.122;2022-11-02T20:07:07;96146.47;;;13.81;54.83
7754;BME280;3921;42.266;23.122;2022-11-02T20:26:55;95688.00;;;10.44;55.51
7754;BME280;3921;42.266;23.122;2022-11-02T20:29:38;95765.81;;;10.80;55.96
7754;BME280;3921;42.266;23.122;2022-11-02T20:32:13;96152.69;;;13.37;55.51
7754;BME280;3921;42.266;23.122;2022-11-02T20:35:14;95905.56;;;11.82;55.57
7754;BME280;3921;42.266;23.122;2022-11-02T20:41:46;95739.91;;;10.35;56.29
7754;BME280;3921;42.266;23.122;2022-11-02T20:57:31;96201.59;;;13.06;57.53
7754;BME280;3921;42.266;23.122;2022-11-02T21:00:05;95735.69;;;10.15;57.20
7754;BME280;3921;42.266;23.122;2022-11-02T21:02:33;95734.84;;;10.14;57.50
7754;BME280;3921;42.266;23.122;2022-11-02T21:05:00;95816.94;;;10.46;57.54
7754;BME280;3921;42.266;23.122;2022-11-02T21:07:29;95708.09;;;9.81;57.59
7754;BME280;3921;42.266;23.122;2022-11-02T21:09:56;95905.69;;;11.06;57.34
7754;BME280;3921;42.266;23.122;2022-11-02T21:12:29;95909.91;;;11.08;57.42
7754;BME280;3921;42.266;23.122;2022-11-02T21:15:13;95782.56;;;10.19;57.27
7754;BME280;3921;42.266;23.122;2022-11-02T21:17:41;95702.25;;;9.82;57.38
7754;BME280;3921;42.266;23.122;2022-11-02T21:20:12;96007.09;;;11.67;57.78
7754;BME280;3921;42.266;23.122;2022-11-02T21:22:40;96060.78;;;11.86;57.65
7754;BME280;3921;42.266;23.122;2022-11-02T21:28:32;95985.31;;;11.39;57.56
7754;BME280;3921;42.266;23.122;2022-11-02T21:31:04;95871.38;;;10.65;57.73
7754;BME280;3921;42.266;23.122;2022-11-02T21:33:38;95729.00;;;9.86;57.70
7754;BME280;3921;42.266;23.122;2022-11-02T21:36:06;95868.84;;;10.91;57.12
7754;BME280;3921;42.266;23.122;2022-11-02T21:38:39;95712.28;;;9.96;56.85
7754;BME280;3921;42.266;23.122;2022-11-02T21:41:20;96110.22;;;12.32;57.36
7754;BME280;3921;42.266;23.122;2022-11-02T21:43:52;96225.19;;;12.94;57.43
7754;BME280;3921;42.266;23.122;2022-11-02T21:46:28;96013.78;;;11.78;56.78
7754;BME280;3921;42.266;23.122;2022-11-02T21:48:59;95718.97;;;9.88;57.30
7754;BME280;3921;42.266;23.122;2022-11-02T21:51:29;95764.13;;;10.03;56.87
7754;BME280;3921;42.266;23.122;2022-11-02T21:54:02;95751.59;;;9.95;57.16
7754;BME280;3921;42.266;23.122;2022-11-02T21:58:13;96132.94;;;12.24;57.60
7754;BME280;3921;42.266;23.122;2022-11-02T22:00:41;95857.94;;;10.49;57.28
7754;BME280;3921;42.266;23.122;2022-11-02T22:03:26;95913.28;;;10.90;57.70
7754;BME280;3921;42.266;23.122;2022-11-02T22:05:53;95883.94;;;10.65;57.71
7754;BME280;3921;42.266;23.122;2022-11-02T22:08:24;95872.22;;;10.56;57.54
7754;BME280;3921;42.266;23.122;2022-11-02T22:11:08;95901.53;;;10.59;57.81
7754;BME280;3921;42.266;23.122;2022-11-02T22:13:42;95762.41;;;9.62;57.99
7754;BME280;3921;42.266;23.122;2022-11-02T22:16:12;95780.03;;;9.85;57.82
7754;BME280;3921;42.266;23.122;2022-11-02T22:18:41;95654.47;;;9.12;58.04
7754;BME280;3921;42.266;23.122;2022-11-02T22:21:09;95994.56;;;11.15;58.36
7754;BME280;3921;42.266;23.122;2022-11-02T22:23:37;95759.06;;;9.63;57.83
7754;BME280;3921;42.266;23.122;2022-11-02T22:26:08;95962.72;;;10.90;58.21
7754;BME280;3921;42.266;23.122;2022-11-02T22:28:41;95710.50;;;9.32;58.28
7754;BME280;3921;42.266;23.122;2022-11-02T22:31:10;95753.22;;;9.60;57.81
7754;BME280;3921;42.266;23.122;2022-11-02T22:33:41;96025.56;;;11.34;57.88
7754;BME280;3921;42.266;23.122;2022-11-02T22:36:10;95815.22;;;10.09;57.91
7754;BME280;3921;42.266;23.122;2022-11-02T22:38:38;95789.25;;;10.00;58.02
7754;BME280;3921;42.266;23.122;2022-11-02T22:41:20;95721.47;;;9.69;57.62
7754;BME280;3921;42.266;23.122;2022-11-02T22:43:58;96008.78;;;11.41;57.91
7754;BME280;3921;42.266;23.122;2022-11-02T22:46:27;95716.44;;;9.60;57.63
7754;BME280;3921;42.266;23.122;2022-11-02T22:48:56;96079.25;;;11.65;57.83
7754;BME280;3921;42.266;23.122;2022-11-02T22:51:27;96111.16;;;12.05;58.00
7754;BME280;3921;42.266;23.122;2022-11-02T22:53:58;95685.47;;;9.49;57.63
7754;BME280;3921;42.266;23.122;2022-11-02T22:56:25;95703.03;;;9.56;57.13
7754;BME280;3921;42.266;23.122;2022-11-02T22:58:57;95681.28;;;9.37;57.43
7754;BME280;3921;42.266;23.122;2022-11-02T23:01:26;95721.41;;;9.43;57.36
7754;BME280;3921;42.266;23.122;2022-11-02T23:03:57;96148.91;;;12.09;57.93
7754;BME280;3921;42.266;23.122;2022-11-02T23:06:25;95744.00;;;9.51;58.02
7754;BME280;3921;42.266;23.122;2022-11-02T23:08:54;95927.50;;;10.50;58.01
7754;BME280;3921;42.266;23.122;2022-11-02T23:11:37;95927.47;;;10.52;58.04
7754;BME280;3921;42.266;23.122;2022-11-02T23:14:08;95810.13;;;9.79;58.35
7754;BME280;3921;42.266;23.122;2022-11-02T23:16:37;95953.44;;;10.48;58.41
7754;BME280;3921;42.266;23.122;2022-11-02T23:19:07;95728.84;;;9.14;58.64
7754;BME280;3921;42.266;23.122;2022-11-02T23:21:52;95868.75;;;10.01;59.13
7754;BME280;3921;42.266;23.122;2022-11-02T23:24:33;96134.63;;;11.68;58.58
7754;BME280;3921;42.266;23.122;2022-11-02T23:27:17;95819.31;;;9.69;58.63
7754;BME280;3921;42.266;23.122;2022-11-02T23:29:46;95624.28;;;8.76;58.39
7754;BME280;3921;42.266;23.122;2022-11-02T23:33:03;96240.44;;;12.39;58.50
7754;BME280;3921;42.266;23.122;2022-11-02T23:35:46;95919.13;;;10.44;59.15
7754;BME280;3921;42.266;23.122;2022-11-02T23:38:34;95962.69;;;10.93;58.49
7754;BME280;3921;42.266;23.122;2022-11-02T23:41:15;95856.19;;;10.01;58.39
7754;BME280;3921;42.266;23.122;2022-11-02T23:43:48;95624.28;;;8.76;58.55
7754;BME280;3921;42.266;23.122;2022-11-02T23:46:19;95813.47;;;9.79;58.53
7754;BME280;3921;42.266;23.122;2022-11-02T23:48:46;95680.38;;;9.14;58.82
7754;BME280;3921;42.266;23.122;2022-11-02T23:51:16;95914.09;;;10.50;59.00
7754;BME280;3921;42.266;23.122;2022-11-02T23:54:00;96134.66;;;11.88;58.87
7754;BME280;3921;42.266;23.122;2022-11-02T23:56:45;95882.19;;;10.20;58.87
7754;BME280;3921;42.266;23.122;2022-11-02T23:59:14;95736.41;;;9.32;58.46
